sensor_id;sensor_type;location;lat;lon;timestamp;pressure;altitude;pressure_sealevel;temperature;humidity
66396;BME280;53207;51.378;-1.342;2023-02-02T00:01:11;101323.67;;;18.58;34.03
66396;BME280;53207;51.378;-1.342;2023-02-02T00:03:39;101324.30;;;18.56;34.06
66396;BME280;53207;51.378;-1.342;2023-02-02T00:06:06;101326.95;;;18.26;34.08
66396;BME280;53207;51.378;-1.342;2023-02-02T00:08:33;101325.12;;;18.77;34.05
66396;BME280;53207;51.378;-1.342;2023-02-02T00:11:01;101331.16;;;18.32;34.02
66396;BME280;53207;51.378;-1.342;2023-02-02T00:13:28;101328.02;;;18.53;34.06
66396;BME280;53207;51.378;-1.342;2023-02-02T00:15:55;101325.61;;;18.50;34.11
66396;BME280;53207;51.378;-1.342;2023-02-02T00:18:22;101331.70;;;18.16;34.18
66396;BME280;53207;51.378;-1.342;2023-02-02T00:20:49;101329.20;;;18.21;34.11
66396;BME280;53207;51.378;-1.342;2023-02-02T00:23:17;101325.11;;;18.10;34.23
66396;BME280;53207;51.378;-1.342;2023-02-02T00:25:44;101319.71;;;18.43;34.15
66396;BME280;53207;51.378;-1.342;2023-02-02T00:28:15;101316.66;;;18.35;34.24
66396;BME280;53207;51.378;-1.342;2023-02-02T00:30:42;101319.25;;;18.35;34.22
66396;BME280;53207;51.378;-1.342;2023-02-02T00:33:10;101319.18;;;18.26;34.33
66396;BME280;53207;51.378;-1.342;2023-02-02T00:35:40;101323.96;;;18.42;34.15
66396;BME280;53207;51.378;-1.342;2023-02-02T00:38:08;101321.73;;;18.33;34.25
66396;BME280;53207;51.378;-1.342;2023-02-02T00:40:35;101321.43;;;18.02;34.28
66396;BME280;53207;51.378;-1.342;2023-02-02T00:43:02;101317.96;;;18.34;34.19
66396;BME280;53207;51.378;-1.342;2023-02-02T00:45:30;101323.81;;;18.26;34.30
66396;BME280;53207;51.378;-1.342;2023-02-02T00:47:57;101324.68;;;18.22;34.33
66396;BME280;53207;51.378;-1.342;2023-02-02T00:50:24;101312.11;;;18.19;34.34
66396;BME280;53207;51.378;-1.342;2023-02-02T00:52:51;101312.42;;;18.29;34.24
66396;BME280;53207;51.378;-1.342;2023-02-02T00:55:19;101306.44;;;18.20;34.33
66396;BME280;53207;51.378;-1.342;2023-02-02T00:57:47;101306.96;;;18.48;34.27
66396;BME280;53207;51.378;-1.342;2023-02-02T01:00:17;101312.73;;;18.16;34.35
66396;BME280;53207;51.378;-1.342;2023-02-02T01:02:44;101309.07;;;18.30;34.42
66396;BME280;53207;51.378;-1.342;2023-02-02T01:05:12;101313.03;;;18.09;34.40
66396;BME280;53207;51.378;-1.342;2023-02-02T01:07:40;101320.21;;;17.79;34.45
66396;BME280;53207;51.378;-1.342;2023-02-02T01:10:10;101325.93;;;18.06;34.43
66396;BME280;53207;51.378;-1.342;2023-02-02T01:12:38;101325.46;;;18.03;34.47
66396;BME280;53207;51.378;-1.342;2023-02-02T01:15:06;101325.07;;;18.28;34.43
66396;BME280;53207;51.378;-1.342;2023-02-02T01:17:33;101324.54;;;18.25;34.46
66396;BME280;53207;51.378;-1.342;2023-02-02T01:20:00;101325.36;;;18.10;34.36
66396;BME280;53207;51.378;-1.342;2023-02-02T01:22:28;101325.66;;;18.05;34.41
66396;BME280;53207;51.378;-1.342;2023-02-02T01:24:55;101329.44;;;18.04;34.43
66396;BME280;53207;51.378;-1.342;2023-02-02T01:27:22;101326.44;;;17.94;34.54
66396;BME280;53207;51.378;-1.342;2023-02-02T01:29:50;101321.85;;;18.03;34.42
66396;BME280;53207;51.378;-1.342;2023-02-02T01:32:17;101323.40;;;18.19;34.48
66396;BME280;53207;51.378;-1.342;2023-02-02T01:34:44;101323.07;;;18.24;34.40
66396;BME280;53207;51.378;-1.342;2023-02-02T01:37:12;101320.39;;;18.20;34.46
66396;BME280;53207;51.378;-1.342;2023-02-02T01:39:39;101323.77;;;18.00;34.43
66396;BME280;53207;51.378;-1.342;2023-02-02T01:42:12;101320.08;;;18.29;34.34
66396;BME280;53207;51.378;-1.342;2023-02-02T01:45:40;101315.60;;;18.03;34.37
66396;BME280;53207;51.378;-1.342;2023-02-02T01:48:07;101325.92;;;17.95;34.44
66396;BME280;53207;51.378;-1.342;2023-02-02T01:50:34;101327.72;;;18.20;34.42
66396;BME280;53207;51.378;-1.342;2023-02-02T01:53:03;101326.06;;;17.88;34.52
66396;BME280;53207;51.378;-1.342;2023-02-02T01:55:34;101329.25;;;18.23;34.36
66396;BME280;53207;51.378;-1.342;2023-02-02T01:58:04;101330.90;;;18.19;34.41
66396;BME280;53207;51.378;-1.342;2023-02-02T02:00:33;101332.26;;;18.19;34.38
66396;BME280;53207;51.378;-1.342;2023-02-02T02:03:05;101333.09;;;17.93;34.41
66396;BME280;53207;51.378;-1.342;2023-02-02T02:05:37;101330.79;;;18.12;34.45
66396;BME280;53207;51.378;-1.342;2023-02-02T02:08:15;101329.21;;;17.87;34.47
66396;BME280;53207;51.378;-1.342;2023-02-02T02:10:43;101330.28;;;18.13;34.41
66396;BME280;53207;51.378;-1.342;2023-02-02T02:13:11;101331.33;;;17.84;34.48
66396;BME280;53207;51.378;-1.342;2023-02-02T02:15:43;101330.73;;;18.12;34.43
66396;BME280;53207;51.378;-1.342;2023-02-02T02:18:20;101330.70;;;18.10;34.43
66396;BME280;53207;51.378;-1.342;2023-02-02T02:21:31;101335.32;;;17.81;34.50
66396;BME280;53207;51.378;-1.342;2023-02-02T02:24:19;101340.63;;;17.82;34.48
66396;BME280;53207;51.378;-1.342;2023-02-02T02:27:12;101342.17;;;17.81;34.47
66396;BME280;53207;51.378;-1.342;2023-02-02T02:30:02;101338.54;;;18.04;34.44
66396;BME280;53207;51.378;-1.342;2023-02-02T02:32:39;101344.71;;;17.76;34.50
66396;BME280;53207;51.378;-1.342;2023-02-02T02:35:12;101351.49;;;17.97;34.50
66396;BME280;53207;51.378;-1.342;2023-02-02T02:37:46;101351.35;;;17.82;34.40
66396;BME280;53207;51.378;-1.342;2023-02-02T02:40:21;101353.73;;;17.74;34.49
66396;BME280;53207;51.378;-1.342;2023-02-02T02:42:55;101350.97;;;17.98;34.46
66396;BME280;53207;51.378;-1.342;2023-02-02T02:45:26;101345.78;;;18.00;34.43
66396;BME280;53207;51.378;-1.342;2023-02-02T02:47:54;101345.81;;;17.94;34.49
66396;BME280;53207;51.378;-1.342;2023-02-02T02:50:22;101348.36;;;17.88;34.54
66396;BME280;53207;51.378;-1.342;2023-02-02T02:52:57;101350.66;;;17.86;34.56
66396;BME280;53207;51.378;-1.342;2023-02-02T02:55:32;101350.71;;;17.89;34.52
66396;BME280;53207;51.378;-1.342;2023-02-02T02:58:06;101343.16;;;17.85;34.55
66396;BME280;53207;51.378;-1.342;2023-02-02T03:00:46;101332.65;;;17.82;34.58
66396;BME280;53207;51.378;-1.342;2023-02-02T03:03:21;101328.87;;;17.76;34.66
66396;BME280;53207;51.378;-1.342;2023-02-02T03:05:55;101327.91;;;17.74;34.66
66396;BME280;53207;51.378;-1.342;2023-02-02T03:08:30;101320.08;;;17.74;34.63
66396;BME280;53207;51.378;-1.342;2023-02-02T03:11:00;101312.65;;;17.73;34.62
66396;BME280;53207;51.378;-1.342;2023-02-02T03:13:28;101313.58;;;17.66;34.72
66396;BME280;53207;51.378;-1.342;2023-02-02T03:15:57;101315.14;;;17.48;34.67
66396;BME280;53207;51.378;-1.342;2023-02-02T03:18:27;101322.28;;;17.65;34.70
66396;BME280;53207;51.378;-1.342;2023-02-02T03:20:55;101328.70;;;17.63;34.72
66396;BME280;53207;51.378;-1.342;2023-02-02T03:23:23;101331.79;;;17.58;34.77
66396;BME280;53207;51.378;-1.342;2023-02-02T03:25:50;101334.37;;;17.53;34.83
66396;BME280;53207;51.378;-1.342;2023-02-02T03:28:18;101331.63;;;17.52;34.83
66396;BME280;53207;51.378;-1.342;2023-02-02T03:30:46;101331.04;;;17.56;34.76
66396;BME280;53207;51.378;-1.342;2023-02-02T03:33:15;101333.48;;;17.47;34.87
66396;BME280;53207;51.378;-1.342;2023-02-02T03:35:43;101334.44;;;17.48;34.85
66396;BME280;53207;51.378;-1.342;2023-02-02T03:38:10;101330.70;;;17.41;34.91
66396;BME280;53207;51.378;-1.342;2023-02-02T03:40:37;101333.16;;;17.40;34.91
66396;BME280;53207;51.378;-1.342;2023-02-02T03:43:05;101338.43;;;17.38;34.91
66396;BME280;53207;51.378;-1.342;2023-02-02T03:45:32;101335.60;;;17.40;34.88
66396;BME280;53207;51.378;-1.342;2023-02-02T03:47:59;101335.69;;;17.38;34.87
66396;BME280;53207;51.378;-1.342;2023-02-02T03:50:27;101332.28;;;17.37;34.88
66396;BME280;53207;51.378;-1.342;2023-02-02T03:52:54;101327.34;;;17.33;34.92
66396;BME280;53207;51.378;-1.342;2023-02-02T03:55:21;101325.46;;;17.30;34.94
66396;BME280;53207;51.378;-1.342;2023-02-02T03:57:49;101320.14;;;17.26;34.98
66396;BME280;53207;51.378;-1.342;2023-02-02T04:00:16;101323.73;;;17.30;34.91
66396;BME280;53207;51.378;-1.342;2023-02-02T04:02:44;101323.50;;;17.25;34.96
66396;BME280;53207;51.378;-1.342;2023-02-02T04:05:11;101325.52;;;17.22;35.00
66396;BME280;53207;51.378;-1.342;2023-02-02T04:07:39;101321.89;;;17.22;34.97
66396;BME280;53207;51.378;-1.342;2023-02-02T04:10:06;101324.71;;;17.20;34.98
66396;BME280;53207;51.378;-1.342;2023-02-02T04:12:34;101324.47;;;17.15;35.05
66396;BME280;53207;51.378;-1.342;2023-02-02T04:15:02;101320.82;;;17.12;35.06
66396;BME280;53207;51.378;-1.342;2023-02-02T04:17:29;101316.62;;;17.12;35.05
66396;BME280;53207;51.378;-1.342;2023-02-02T04:19:56;101317.28;;;17.12;35.03
66396;BME280;53207;51.378;-1.342;2023-02-02T04:22:24;101317.97;;;17.08;35.07
66396;BME280;53207;51.378;-1.342;2023-02-02T04:24:51;101320.24;;;17.51;35.12
66396;BME280;53207;51.378;-1.342;2023-02-02T04:27:18;101317.57;;;17.07;35.06
66396;BME280;53207;51.378;-1.342;2023-02-02T04:29:45;101318.62;;;17.08;35.03
66396;BME280;53207;51.378;-1.342;2023-02-02T04:32:14;101318.85;;;17.00;35.12
66396;BME280;53207;51.378;-1.342;2023-02-02T04:34:41;101319.62;;;16.97;35.14
66396;BME280;53207;51.378;-1.342;2023-02-02T04:37:09;101316.00;;;17.00;35.09
66396;BME280;53207;51.378;-1.342;2023-02-02T04:39:36;101310.17;;;16.96;35.11
66396;BME280;53207;51.378;-1.342;2023-02-02T04:42:03;101307.91;;;16.96;35.12
66396;BME280;53207;51.378;-1.342;2023-02-02T04:44:30;101307.07;;;16.93;35.12
66396;BME280;53207;51.378;-1.342;2023-02-02T04:46:57;101305.64;;;16.92;35.12
66396;BME280;53207;51.378;-1.342;2023-02-02T04:49:25;101304.34;;;17.42;35.09
66396;BME280;53207;51.378;-1.342;2023-02-02T04:51:52;101304.33;;;16.87;35.16
66396;BME280;53207;51.378;-1.342;2023-02-02T04:54:20;101301.74;;;16.87;35.14
66396;BME280;53207;51.378;-1.342;2023-02-02T04:56:47;101301.09;;;16.81;35.21
66396;BME280;53207;51.378;-1.342;2023-02-02T04:59:14;101297.77;;;16.86;35.12
66396;BME280;53207;51.378;-1.342;2023-02-02T05:01:41;101300.88;;;16.77;35.24
66396;BME280;53207;51.378;-1.342;2023-02-02T05:04:10;101302.89;;;16.80;35.18
66396;BME280;53207;51.378;-1.342;2023-02-02T05:06:37;101302.18;;;17.05;35.21
66396;BME280;53207;51.378;-1.342;2023-02-02T05:09:04;101300.19;;;17.03;35.20
66396;BME280;53207;51.378;-1.342;2023-02-02T05:11:32;101302.65;;;16.74;35.22
66396;BME280;53207;51.378;-1.342;2023-02-02T05:13:59;101300.04;;;16.72;35.23
66396;BME280;53207;51.378;-1.342;2023-02-02T05:16:26;101300.91;;;17.08;35.08
66396;BME280;53207;51.378;-1.342;2023-02-02T05:18:56;101306.06;;;16.69;35.24
66396;BME280;53207;51.378;-1.342;2023-02-02T05:21:24;101306.83;;;16.71;35.20
66396;BME280;53207;51.378;-1.342;2023-02-02T05:23:51;101310.52;;;16.68;35.23
66396;BME280;53207;51.378;-1.342;2023-02-02T05:26:20;101309.26;;;17.18;35.19
66396;BME280;53207;51.378;-1.342;2023-02-02T05:28:48;101316.75;;;16.97;35.16
66396;BME280;53207;51.378;-1.342;2023-02-02T05:31:16;101317.87;;;16.90;35.24
66396;BME280;53207;51.378;-1.342;2023-02-02T05:33:43;101315.23;;;16.64;35.23
66396;BME280;53207;51.378;-1.342;2023-02-02T05:36:10;101318.85;;;16.60;35.26
66396;BME280;53207;51.378;-1.342;2023-02-02T05:38:37;101315.96;;;16.58;35.26
66396;BME280;53207;51.378;-1.342;2023-02-02T05:41:05;101311.98;;;16.85;35.24
66396;BME280;53207;51.378;-1.342;2023-02-02T05:43:32;101307.18;;;16.78;35.31
66396;BME280;53207;51.378;-1.342;2023-02-02T05:46:00;101309.30;;;17.02;35.27
66396;BME280;53207;51.378;-1.342;2023-02-02T05:48:28;101307.21;;;16.97;35.32
66396;BME280;53207;51.378;-1.342;2023-02-02T05:50:59;101312.76;;;16.95;35.33
66396;BME280;53207;51.378;-1.342;2023-02-02T05:53:29;101311.65;;;16.50;35.27
66396;BME280;53207;51.378;-1.342;2023-02-02T05:55:56;101305.53;;;16.69;35.33
66396;BME280;53207;51.378;-1.342;2023-02-02T05:58:24;101308.34;;;16.71;35.30
66396;BME280;53207;51.378;-1.342;2023-02-02T06:00:51;101311.32;;;16.47;35.25
66396;BME280;53207;51.378;-1.342;2023-02-02T06:03:18;101309.91;;;16.45;35.26
66396;BME280;53207;51.378;-1.342;2023-02-02T06:05:46;101306.14;;;16.93;35.26
66396;BME280;53207;51.378;-1.342;2023-02-02T06:08:13;101306.90;;;16.92;35.27
66396;BME280;53207;51.378;-1.342;2023-02-02T06:10:41;101309.05;;;16.88;35.29
66396;BME280;53207;51.378;-1.342;2023-02-02T06:13:08;101309.66;;;16.36;35.31
66396;BME280;53207;51.378;-1.342;2023-02-02T06:15:36;101310.92;;;16.81;35.35
66396;BME280;53207;51.378;-1.342;2023-02-02T06:18:04;101314.99;;;16.33;35.32
66396;BME280;53207;51.378;-1.342;2023-02-02T06:20:31;101311.46;;;16.79;35.34
66396;BME280;53207;51.378;-1.342;2023-02-02T06:22:58;101307.50;;;16.60;35.28
66396;BME280;53207;51.378;-1.342;2023-02-02T06:25:25;101308.83;;;16.76;35.34
66396;BME280;53207;51.378;-1.342;2023-02-02T06:27:54;101308.49;;;16.80;35.28
66396;BME280;53207;51.378;-1.342;2023-02-02T06:30:22;101306.83;;;16.58;35.27
66396;BME280;53207;51.378;-1.342;2023-02-02T06:32:49;101309.40;;;16.51;35.35
66396;BME280;53207;51.378;-1.342;2023-02-02T06:35:17;101311.96;;;16.25;35.35
66396;BME280;53207;51.378;-1.342;2023-02-02T06:37:44;101313.21;;;16.23;35.43
66396;BME280;53207;51.378;-1.342;2023-02-02T06:40:11;101313.37;;;16.56;35.44
66396;BME280;53207;51.378;-1.342;2023-02-02T06:42:38;101316.57;;;16.88;35.39
66396;BME280;53207;51.378;-1.342;2023-02-02T06:45:06;101321.93;;;16.98;35.04
66396;BME280;53207;51.378;-1.342;2023-02-02T06:47:34;101321.96;;;17.42;34.93
66396;BME280;53207;51.378;-1.342;2023-02-02T06:50:02;101327.97;;;17.10;34.87
66396;BME280;53207;51.378;-1.342;2023-02-02T06:52:29;101336.46;;;17.51;34.83
66396;BME280;53207;51.378;-1.342;2023-02-02T06:54:57;101336.58;;;17.82;34.91
66396;BME280;53207;51.378;-1.342;2023-02-02T06:57:24;101336.84;;;17.93;35.00
66396;BME280;53207;51.378;-1.342;2023-02-02T06:59:51;101333.96;;;18.11;34.95
66396;BME280;53207;51.378;-1.342;2023-02-02T07:02:19;101338.01;;;17.68;34.97
66396;BME280;53207;51.378;-1.342;2023-02-02T07:04:46;101339.39;;;18.04;34.95
66396;BME280;53207;51.378;-1.342;2023-02-02T07:07:13;101343.27;;;17.92;34.85
66396;BME280;53207;51.378;-1.342;2023-02-02T07:09:41;101343.61;;;17.97;34.86
66396;BME280;53207;51.378;-1.342;2023-02-02T07:12:08;101345.64;;;18.12;34.70
66396;BME280;53207;51.378;-1.342;2023-02-02T07:14:35;101348.20;;;18.25;34.59
66396;BME280;53207;51.378;-1.342;2023-02-02T07:17:03;101350.88;;;18.07;34.56
66396;BME280;53207;51.378;-1.342;2023-02-02T07:19:30;101354.63;;;18.43;34.47
66396;BME280;53207;51.378;-1.342;2023-02-02T07:21:57;101355.82;;;18.51;34.44
66396;BME280;53207;51.378;-1.342;2023-02-02T07:24:25;101359.18;;;18.55;34.40
66396;BME280;53207;51.378;-1.342;2023-02-02T07:26:52;101358.84;;;18.44;34.31
66396;BME280;53207;51.378;-1.342;2023-02-02T07:29:19;101359.59;;;18.47;34.29
66396;BME280;53207;51.378;-1.342;2023-02-02T07:31:46;101356.23;;;18.77;34.23
66396;BME280;53207;51.378;-1.342;2023-02-02T07:34:14;101358.83;;;18.60;34.18
66396;BME280;53207;51.378;-1.342;2023-02-02T07:36:41;101355.67;;;18.84;34.12
66396;BME280;53207;51.378;-1.342;2023-02-02T07:39:10;101355.16;;;18.66;34.04
66396;BME280;53207;51.378;-1.342;2023-02-02T07:41:38;101349.78;;;18.65;34.08
66396;BME280;53207;51.378;-1.342;2023-02-02T07:44:05;101347.61;;;18.70;34.04
66396;BME280;53207;51.378;-1.342;2023-02-02T07:46:32;101347.87;;;19.00;33.99
66396;BME280;53207;51.378;-1.342;2023-02-02T07:48:59;101345.97;;;18.79;34.01
66396;BME280;53207;51.378;-1.342;2023-02-02T07:51:27;101347.37;;;18.60;33.94
66396;BME280;53207;51.378;-1.342;2023-02-02T07:53:55;101347.25;;;18.86;33.99
66396;BME280;53207;51.378;-1.342;2023-02-02T07:56:24;101347.63;;;18.58;34.06
66396;BME280;53207;51.378;-1.342;2023-02-02T07:58:52;101353.73;;;18.98;33.91
66396;BME280;53207;51.378;-1.342;2023-02-02T08:01:20;101363.54;;;18.95;33.98
66396;BME280;53207;51.378;-1.342;2023-02-02T08:03:48;101366.08;;;18.72;33.96
66396;BME280;53207;51.378;-1.342;2023-02-02T08:06:18;101367.94;;;18.78;33.88
66396;BME280;53207;51.378;-1.342;2023-02-02T08:08:47;101371.14;;;19.09;33.83
66396;BME280;53207;51.378;-1.342;2023-02-02T08:11:17;101375.50;;;18.83;33.76
66396;BME280;53207;51.378;-1.342;2023-02-02T08:13:46;101379.12;;;18.81;33.80
66396;BME280;53207;51.378;-1.342;2023-02-02T08:16:15;101380.99;;;18.79;33.78
66396;BME280;53207;51.378;-1.342;2023-02-02T08:18:42;101382.28;;;19.04;33.76
66396;BME280;53207;51.378;-1.342;2023-02-02T08:21:09;101389.16;;;18.99;33.81
66396;BME280;53207;51.378;-1.342;2023-02-02T08:23:38;101392.21;;;18.99;33.83
66396;BME280;53207;51.378;-1.342;2023-02-02T08:26:09;101387.61;;;18.74;33.87
66396;BME280;53207;51.378;-1.342;2023-02-02T08:28:37;101387.55;;;18.80;33.92
66396;BME280;53207;51.378;-1.342;2023-02-02T08:31:07;101386.24;;;18.88;33.89
66396;BME280;53207;51.378;-1.342;2023-02-02T08:33:34;101386.19;;;18.87;33.94
66396;BME280;53207;51.378;-1.342;2023-02-02T08:36:02;101382.52;;;18.90;33.91
66396;BME280;53207;51.378;-1.342;2023-02-02T08:38:30;101376.12;;;18.94;33.85
66396;BME280;53207;51.378;-1.342;2023-02-02T08:41:03;101373.50;;;18.94;33.82
66396;BME280;53207;51.378;-1.342;2023-02-02T08:43:30;101373.51;;;18.92;33.83
66396;BME280;53207;51.378;-1.342;2023-02-02T08:45:58;101378.92;;;19.15;33.84
66396;BME280;53207;51.378;-1.342;2023-02-02T08:48:25;101380.47;;;18.86;33.86
66396;BME280;53207;51.378;-1.342;2023-02-02T08:50:53;101380.53;;;19.07;33.91
66396;BME280;53207;51.378;-1.342;2023-02-02T08:53:21;101381.69;;;18.78;33.94
66396;BME280;53207;51.378;-1.342;2023-02-02T08:55:57;101382.37;;;18.99;33.99
66396;BME280;53207;51.378;-1.342;2023-02-02T08:58:25;101379.95;;;18.71;34.00
66396;BME280;53207;51.378;-1.342;2023-02-02T09:00:52;101381.69;;;18.66;34.03
66396;BME280;53207;51.378;-1.342;2023-02-02T09:03:19;101384.82;;;18.59;34.10
66396;BME280;53207;51.378;-1.342;2023-02-02T09:05:47;101384.99;;;18.54;34.15
66396;BME280;53207;51.378;-1.342;2023-02-02T09:08:14;101382.13;;;18.51;34.19
66396;BME280;53207;51.378;-1.342;2023-02-02T09:10:41;101385.85;;;18.46;34.22
66396;BME280;53207;51.378;-1.342;2023-02-02T09:13:09;101390.94;;;18.51;34.15
66396;BME280;53207;51.378;-1.342;2023-02-02T09:15:36;101390.93;;;18.96;34.16
66396;BME280;53207;51.378;-1.342;2023-02-02T09:18:03;101390.73;;;18.42;34.18
66396;BME280;53207;51.378;-1.342;2023-02-02T09:20:31;101391.95;;;18.44;34.15
66396;BME280;53207;51.378;-1.342;2023-02-02T09:22:58;101394.91;;;18.67;34.19
66396;BME280;53207;51.378;-1.342;2023-02-02T09:25:25;101393.93;;;18.37;34.21
66396;BME280;53207;51.378;-1.342;2023-02-02T09:27:52;101392.06;;;18.39;34.17
66396;BME280;53207;51.378;-1.342;2023-02-02T09:30:20;101393.31;;;18.57;34.27
66396;BME280;53207;51.378;-1.342;2023-02-02T09:32:48;101402.99;;;18.22;34.35
66396;BME280;53207;51.378;-1.342;2023-02-02T09:35:16;101407.53;;;18.55;34.26
66396;BME280;53207;51.378;-1.342;2023-02-02T09:37:43;101407.37;;;18.24;34.29
66396;BME280;53207;51.378;-1.342;2023-02-02T09:40:14;101407.16;;;18.21;34.30
66396;BME280;53207;51.378;-1.342;2023-02-02T09:42:51;101412.60;;;18.46;34.31
66396;BME280;53207;51.378;-1.342;2023-02-02T09:45:25;101416.68;;;18.18;34.32
66396;BME280;53207;51.378;-1.342;2023-02-02T09:48:01;101415.67;;;18.14;34.35
66396;BME280;53207;51.378;-1.342;2023-02-02T09:50:40;101415.80;;;18.13;34.34
66396;BME280;53207;51.378;-1.342;2023-02-02T09:53:15;101423.93;;;18.37;34.36
66396;BME280;53207;51.378;-1.342;2023-02-02T09:55:45;101424.75;;;18.59;34.35
66396;BME280;53207;51.378;-1.342;2023-02-02T09:58:18;101427.18;;;18.05;34.41
66396;BME280;53207;51.378;-1.342;2023-02-02T10:00:51;101427.61;;;18.05;34.39
66396;BME280;53207;51.378;-1.342;2023-02-02T10:03:23;101428.39;;;18.35;34.34
66396;BME280;53207;51.378;-1.342;2023-02-02T10:05:56;101424.33;;;18.05;34.37
66396;BME280;53207;51.378;-1.342;2023-02-02T10:08:33;101425.19;;;18.03;34.38
66396;BME280;53207;51.378;-1.342;2023-02-02T10:11:16;101423.44;;;18.30;34.39
66396;BME280;53207;51.378;-1.342;2023-02-02T10:13:49;101430.82;;;18.04;34.37
66396;BME280;53207;51.378;-1.342;2023-02-02T10:16:21;101434.81;;;17.99;34.42
66396;BME280;53207;51.378;-1.342;2023-02-02T10:18:54;101435.46;;;18.26;34.42
66396;BME280;53207;51.378;-1.342;2023-02-02T10:21:31;101437.96;;;18.00;34.38
66396;BME280;53207;51.378;-1.342;2023-02-02T10:24:01;101442.28;;;17.88;34.50
66396;BME280;53207;51.378;-1.342;2023-02-02T10:26:36;101451.17;;;18.42;34.44
66396;BME280;53207;51.378;-1.342;2023-02-02T10:29:14;101450.14;;;18.24;34.40
66396;BME280;53207;51.378;-1.342;2023-02-02T10:31:48;101450.90;;;18.19;34.41
66396;BME280;53207;51.378;-1.342;2023-02-02T10:34:21;101447.24;;;18.23;34.38
66396;BME280;53207;51.378;-1.342;2023-02-02T10:37:02;101455.60;;;18.36;34.44
66396;BME280;53207;51.378;-1.342;2023-02-02T10:39:40;101454.03;;;18.12;34.45
66396;BME280;53207;51.378;-1.342;2023-02-02T10:42:21;101458.22;;;18.12;34.43
66396;BME280;53207;51.378;-1.342;2023-02-02T10:44:54;101453.75;;;18.05;34.51
66396;BME280;53207;51.378;-1.342;2023-02-02T10:47:26;101449.10;;;18.10;34.46
66396;BME280;53207;51.378;-1.342;2023-02-02T10:50:06;101446.29;;;18.24;34.55
66396;BME280;53207;51.378;-1.342;2023-02-02T10:52:36;101446.19;;;18.10;34.44
66396;BME280;53207;51.378;-1.342;2023-02-02T10:55:09;101449.05;;;18.16;34.36
66396;BME280;53207;51.378;-1.342;2023-02-02T10:57:50;101452.06;;;17.84;34.38
66396;BME280;53207;51.378;-1.342;2023-02-02T11:00:21;101460.20;;;18.02;34.50
66396;BME280;53207;51.378;-1.342;2023-02-02T11:02:50;101456.33;;;18.02;34.48
66396;BME280;53207;51.378;-1.342;2023-02-02T11:05:20;101454.31;;;18.26;34.46
66396;BME280;53207;51.378;-1.342;2023-02-02T11:07:48;101447.83;;;17.99;34.50
66396;BME280;53207;51.378;-1.342;2023-02-02T11:10:18;101442.38;;;17.93;34.55
66396;BME280;53207;51.378;-1.342;2023-02-02T11:12:47;101441.46;;;18.08;34.36
66396;BME280;53207;51.378;-1.342;2023-02-02T11:15:24;101444.59;;;18.28;34.39
66396;BME280;53207;51.378;-1.342;2023-02-02T11:17:51;101446.82;;;18.04;34.38
66396;BME280;53207;51.378;-1.342;2023-02-02T11:20:23;101451.34;;;18.27;34.35
66396;BME280;53207;51.378;-1.342;2023-02-02T11:23:00;101449.59;;;17.99;34.43
66396;BME280;53207;51.378;-1.342;2023-02-02T11:25:29;101451.28;;;18.01;34.38
66396;BME280;53207;51.378;-1.342;2023-02-02T11:28:00;101444.22;;;18.17;34.46
66396;BME280;53207;51.378;-1.342;2023-02-02T11:30:37;101443.53;;;18.11;34.51
66396;BME280;53207;51.378;-1.342;2023-02-02T11:33:20;101438.06;;;17.93;34.47
66396;BME280;53207;51.378;-1.342;2023-02-02T11:35:54;101436.08;;;18.12;34.50
66396;BME280;53207;51.378;-1.342;2023-02-02T11:38:22;101437.19;;;17.87;34.51
66396;BME280;53207;51.378;-1.342;2023-02-02T11:40:55;101426.92;;;18.13;34.47
66396;BME280;53207;51.378;-1.342;2023-02-02T11:43:27;101424.36;;;18.12;34.47
66396;BME280;53207;51.378;-1.342;2023-02-02T11:45:58;101427.01;;;17.65;34.42
66396;BME280;53207;51.378;-1.342;2023-02-02T11:48:30;101429.98;;;17.84;34.53
66396;BME280;53207;51.378;-1.342;2023-02-02T11:50:59;101425.45;;;17.85;34.51
66396;BME280;53207;51.378;-1.342;2023-02-02T11:53:29;101421.95;;;18.16;34.39
66396;BME280;53207;51.378;-1.342;2023-02-02T11:56:00;101420.11;;;18.07;34.48
66396;BME280;53207;51.378;-1.342;2023-02-02T11:58:30;101416.55;;;18.07;34.48
66396;BME280;53207;51.378;-1.342;2023-02-02T12:01:21;101422.25;;;18.02;34.53
66396;BME280;53207;51.378;-1.342;2023-02-02T12:03:49;101418.86;;;18.14;34.39
66396;BME280;53207;51.378;-1.342;2023-02-02T12:06:19;101416.74;;;18.10;34.44
66396;BME280;53207;51.378;-1.342;2023-02-02T12:08:48;101418.43;;;18.04;34.50
66396;BME280;53207;51.378;-1.342;2023-02-02T12:11:27;101413.71;;;17.99;34.54
66396;BME280;53207;51.378;-1.342;2023-02-02T12:14:08;101413.93;;;17.70;34.63
66396;BME280;53207;51.378;-1.342;2023-02-02T12:16:46;101417.44;;;18.03;34.47
66396;BME280;53207;51.378;-1.342;2023-02-02T12:19:32;101411.45;;;18.03;34.44
66396;BME280;53207;51.378;-1.342;2023-02-02T12:22:09;101412.17;;;17.80;34.46
66396;BME280;53207;51.378;-1.342;2023-02-02T12:24:47;101410.05;;;18.00;34.47
66396;BME280;53207;51.378;-1.342;2023-02-02T12:27:24;101413.60;;;17.95;34.50
66396;BME280;53207;51.378;-1.342;2023-02-02T12:30:07;101411.63;;;17.95;34.48
66396;BME280;53207;51.378;-1.342;2023-02-02T12:32:47;101405.45;;;17.76;34.43
66396;BME280;53207;51.378;-1.342;2023-02-02T12:35:29;101404.22;;;17.91;34.50
66396;BME280;53207;51.378;-1.342;2023-02-02T12:38:09;101401.28;;;17.95;34.43
66396;BME280;53207;51.378;-1.342;2023-02-02T12:40:50;101405.97;;;17.93;34.46
66396;BME280;53207;51.378;-1.342;2023-02-02T12:43:32;101402.17;;;17.90;34.48
66396;BME280;53207;51.378;-1.342;2023-02-02T12:46:16;101392.08;;;17.58;34.59
66396;BME280;53207;51.378;-1.342;2023-02-02T12:49:04;101392.05;;;17.82;34.53
66396;BME280;53207;51.378;-1.342;2023-02-02T12:52:01;101384.54;;;17.83;34.52
66396;BME280;53207;51.378;-1.342;2023-02-02T12:54:44;101390.96;;;17.78;34.56
66396;BME280;53207;51.378;-1.342;2023-02-02T12:57:22;101394.07;;;17.83;34.52